createdAt,value
2019-05-09T00:00:06.114Z,1002.3
2019-05-09T00:01:06.160Z,1002.2
2019-05-09T00:02:06.231Z,1002.3
2019-05-09T00:03:06.304Z,1002.2
2019-05-09T00:04:06.385Z,1002.3
2019-05-09T00:05:06.393Z,1002.2
2019-05-09T00:06:06.455Z,1002.2
2019-05-09T00:07:06.503Z,1002.1
2019-05-09T00:08:06.497Z,1002.2
2019-05-09T00:09:06.557Z,1002.2
2019-05-09T00:10:06.627Z,1002.1
2019-05-09T00:11:06.658Z,1002.1
2019-05-09T00:12:06.671Z,1002.2
2019-05-09T00:13:06.761Z,1002.2
2019-05-09T00:14:06.829Z,1002.2
2019-05-09T00:15:06.801Z,1002.2
2019-05-09T00:16:06.867Z,1002.2
2019-05-09T00:17:06.924Z,1002.2
2019-05-09T00:18:07.011Z,1002.2
2019-05-09T00:19:07.039Z,1002.2
2019-05-09T00:20:07.249Z,1002.3
2019-05-09T00:21:07.109Z,1002.3
2019-05-09T00:22:07.109Z,1002.3
2019-05-09T00:23:07.137Z,1002.2
2019-05-09T00:24:07.142Z,1002.3
2019-05-09T00:25:07.129Z,1002.3
2019-05-09T00:26:07.196Z,1002.2
2019-05-09T00:27:07.232Z,1002.3
2019-05-09T00:28:07.295Z,1002.3
2019-05-09T00:29:07.280Z,1002.3
2019-05-09T00:30:07.356Z,1002.4
2019-05-09T00:31:07.360Z,1002.4
2019-05-09T00:32:07.417Z,1002.4
2019-05-09T00:33:10.087Z,1002.3
2019-05-09T00:34:07.503Z,1002.4
2019-05-09T00:35:07.533Z,1002.4
2019-05-09T00:36:07.564Z,1002.4
2019-05-09T00:37:07.587Z,1002.4
2019-05-09T00:38:07.636Z,1002.4
2019-05-09T00:39:07.675Z,1002.4
2019-05-09T00:40:07.714Z,1002.4
2019-05-09T00:41:07.762Z,1002.4
2019-05-09T00:42:07.819Z,1002.3
2019-05-09T00:43:07.839Z,1002.3
2019-05-09T00:44:07.889Z,1002.4
2019-05-09T00:45:07.913Z,1002.4
2019-05-09T00:46:08.036Z,1002.4
2019-05-09T00:47:08.001Z,1002.4
2019-05-09T00:48:08.050Z,1002.3
2019-05-09T00:49:08.046Z,1002.5
2019-05-09T00:50:08.053Z,1002.4
2019-05-09T00:51:08.064Z,1002.4
2019-05-09T00:52:08.104Z,1002.4
2019-05-09T00:53:08.155Z,1002.4
2019-05-09T00:54:08.161Z,1002.3
2019-05-09T00:55:08.197Z,1002.4
2019-05-09T00:56:08.251Z,1002.3
2019-05-09T00:57:08.248Z,1002.4
2019-05-09T00:58:08.295Z,1002.4
2019-05-09T00:59:08.298Z,1002.4
2019-05-09T01:00:08.315Z,1002.3
2019-05-09T01:01:08.341Z,1002.5
2019-05-09T01:02:08.354Z,1002.3
2019-05-09T01:03:08.384Z,1002.3
2019-05-09T01:04:08.426Z,1002.4
2019-05-09T01:05:08.445Z,1002.3
2019-05-09T01:06:08.443Z,1002.3
2019-05-09T01:07:08.465Z,1002.3
2019-05-09T01:08:08.558Z,1002.3
2019-05-09T01:09:08.599Z,1002.4
2019-05-09T01:10:08.608Z,1002.3
2019-05-09T01:11:12.261Z,1002.2
2019-05-09T01:12:08.620Z,1002.3
2019-05-09T01:13:08.635Z,1002.2
2019-05-09T01:14:08.708Z,1002.4
2019-05-09T01:15:08.682Z,1002.4
2019-05-09T01:16:08.710Z,1002.3
2019-05-09T01:17:08.712Z,1002.4
2019-05-09T01:18:08.742Z,1002.3
2019-05-09T01:19:08.771Z,1002.3
2019-05-09T01:20:08.784Z,1002.3
2019-05-09T01:21:08.802Z,1002.3
2019-05-09T01:22:08.822Z,1002.2
2019-05-09T01:23:08.830Z,1002.3
2019-05-09T01:24:08.841Z,1002.2
2019-05-09T01:25:08.846Z,1002.2
2019-05-09T01:26:08.856Z,1002.2
2019-05-09T01:27:08.888Z,1002.3
2019-05-09T01:28:08.878Z,1002.3
2019-05-09T01:29:08.907Z,1002.3
2019-05-09T01:30:08.925Z,1002.4
2019-05-09T01:31:08.922Z,1002.4
2019-05-09T01:32:08.933Z,1002.4
2019-05-09T01:33:08.912Z,1002.4
2019-05-09T01:34:08.952Z,1002.4
2019-05-09T01:35:08.941Z,1002.4
2019-05-09T01:36:09.030Z,1002.4
2019-05-09T01:37:08.957Z,1002.4
2019-05-09T01:38:08.964Z,1002.4
2019-05-09T01:39:08.953Z,1002.5
2019-05-09T01:40:08.950Z,1002.4
2019-05-09T01:41:22.749Z,1002.4
2019-05-09T01:42:09.006Z,1002.4
2019-05-09T01:43:09.095Z,1002.5
2019-05-09T01:44:09.166Z,1002.5
2019-05-09T01:45:09.154Z,1002.5
2019-05-09T01:46:09.218Z,1002.5
2019-05-09T01:47:09.252Z,1002.6
2019-05-09T01:48:09.329Z,1002.6
2019-05-09T01:49:09.397Z,1002.5
2019-05-09T01:50:09.445Z,1002.5
2019-05-09T01:51:09.429Z,1002.6
2019-05-09T01:52:09.533Z,1002.5
2019-05-09T01:53:09.556Z,1002.5
2019-05-09T01:54:09.586Z,1002.6
2019-05-09T01:55:09.571Z,1002.6
2019-05-09T01:56:09.672Z,1002.7
2019-05-09T01:57:09.656Z,1002.6
2019-05-09T01:58:09.847Z,1002.7
2019-05-09T01:59:09.693Z,1002.6
2019-05-09T02:00:09.858Z,1002.6
2019-05-09T02:01:09.806Z,1002.6
2019-05-09T02:02:09.926Z,1002.7
2019-05-09T02:03:09.895Z,1002.6
2019-05-09T02:04:09.946Z,1002.6
2019-05-09T02:05:10.005Z,1002.6
2019-05-09T02:06:10.083Z,1002.6
2019-05-09T02:07:10.104Z,1002.6
2019-05-09T02:08:10.204Z,1002.6
2019-05-09T02:09:10.230Z,1002.5
2019-05-09T02:10:10.286Z,1002.6
2019-05-09T02:11:10.273Z,1002.7
2019-05-09T02:12:10.285Z,1002.7
2019-05-09T02:13:10.342Z,1002.6
2019-05-09T02:14:10.366Z,1002.6
2019-05-09T02:15:10.423Z,1002.6
2019-05-09T02:16:10.487Z,1002.6
2019-05-09T02:17:10.483Z,1002.5
2019-05-09T02:18:10.494Z,1002.6
2019-05-09T02:19:10.511Z,1002.6
2019-05-09T02:20:10.533Z,1002.7
2019-05-09T02:21:12.149Z,1002.7
2019-05-09T02:22:12.887Z,1002.6
2019-05-09T02:23:10.691Z,1002.7
2019-05-09T02:24:10.741Z,1002.6
2019-05-09T02:25:10.797Z,1002.7
2019-05-09T02:26:13.260Z,1002.7
2019-05-09T02:27:13.053Z,1002.7
2019-05-09T02:28:10.914Z,1002.8
2019-05-09T02:29:10.986Z,1002.8
2019-05-09T02:30:14.655Z,1002.8
2019-05-09T02:31:11.047Z,1002.7
2019-05-09T02:32:11.066Z,1002.8
2019-05-09T02:33:14.252Z,1002.7
2019-05-09T02:34:14.510Z,1002.8
2019-05-09T02:35:11.217Z,1002.7
2019-05-09T02:36:11.259Z,1002.8
2019-05-09T02:37:11.306Z,1002.8
2019-05-09T02:38:11.361Z,1002.7
2019-05-09T02:39:11.492Z,1002.7
2019-05-09T02:40:11.545Z,1002.8
2019-05-09T02:41:11.451Z,1002.7
2019-05-09T02:42:14.100Z,1002.6
2019-05-09T02:43:11.519Z,1002.7
2019-05-09T02:44:11.568Z,1002.6
2019-05-09T02:45:11.564Z,1002.5
2019-05-09T02:46:11.645Z,1002.6
2019-05-09T02:47:11.654Z,1002.6
2019-05-09T02:48:11.697Z,1002.5
2019-05-09T02:49:11.772Z,1002.5
2019-05-09T02:50:11.804Z,1002.6
2019-05-09T02:51:14.324Z,1002.5
2019-05-09T02:52:11.871Z,1002.5
2019-05-09T02:53:11.893Z,1002.5
2019-05-09T02:54:11.936Z,1002.5
2019-05-09T02:55:12.093Z,1002.6
2019-05-09T02:56:12.032Z,1002.5
2019-05-09T02:57:12.061Z,1002.5
2019-05-09T02:58:12.107Z,1002.6
2019-05-09T02:59:12.116Z,1002.6
2019-05-09T03:00:12.129Z,1002.5
2019-05-09T03:01:12.201Z,1002.6
2019-05-09T03:02:12.203Z,1002.5
2019-05-09T03:03:12.227Z,1002.6
2019-05-09T03:04:12.267Z,1002.6
2019-05-09T03:05:12.317Z,1002.6
2019-05-09T03:06:12.329Z,1002.6
2019-05-09T03:07:12.329Z,1002.6
2019-05-09T03:08:12.367Z,1002.6
2019-05-09T03:09:12.425Z,1002.6
2019-05-09T03:10:12.385Z,1002.8
2019-05-09T03:11:12.424Z,1002.7
2019-05-09T03:12:25.888Z,1002.7
2019-05-09T03:13:12.495Z,1002.7
2019-05-09T03:14:12.506Z,1002.7
2019-05-09T03:15:12.518Z,1002.7
2019-05-09T03:16:12.562Z,1002.7
2019-05-09T03:17:12.574Z,1002.7
2019-05-09T03:18:12.621Z,1002.8
2019-05-09T03:19:12.604Z,1002.7
2019-05-09T03:20:12.607Z,1002.7
2019-05-09T03:21:12.621Z,1002.7
2019-05-09T03:22:12.597Z,1002.7
2019-05-09T03:23:12.628Z,1002.6
2019-05-09T03:24:12.648Z,1002.7
2019-05-09T03:25:12.659Z,1002.8
2019-05-09T03:26:12.675Z,1002.8
2019-05-09T03:27:12.679Z,1002.8
2019-05-09T03:28:12.683Z,1002.7
2019-05-09T03:29:12.724Z,1002.6
2019-05-09T03:30:12.821Z,1002.7
2019-05-09T03:31:12.730Z,1002.6
2019-05-09T03:32:12.741Z,1002.5
2019-05-09T03:33:15.009Z,1002.7
2019-05-09T03:34:12.766Z,1002.7
2019-05-09T03:35:12.774Z,1002.7
2019-05-09T03:36:12.759Z,1002.7
2019-05-09T03:37:12.770Z,1002.7
2019-05-09T03:38:12.775Z,1002.8
2019-05-09T03:39:12.799Z,1002.7
2019-05-09T03:40:12.782Z,1002.7
2019-05-09T03:41:12.805Z,1002.8
2019-05-09T03:42:12.774Z,1002.8
2019-05-09T03:43:15.306Z,1002.8
2019-05-09T03:44:12.818Z,1002.8
2019-05-09T03:45:12.809Z,1002.9
2019-05-09T03:46:12.832Z,1002.9
2019-05-09T03:47:12.858Z,1002.9
2019-05-09T03:48:12.891Z,1003
2019-05-09T03:49:13.034Z,1002.9
2019-05-09T03:50:13.035Z,1002.9
2019-05-09T03:51:13.142Z,1002.9
2019-05-09T03:52:13.144Z,1002.9
2019-05-09T03:53:13.154Z,1002.9
2019-05-09T03:54:13.230Z,1002.9
2019-05-09T03:55:13.267Z,1003
2019-05-09T03:56:13.354Z,1002.9
2019-05-09T03:57:13.384Z,1002.9
2019-05-09T03:58:13.455Z,1002.9
2019-05-09T03:59:13.494Z,1002.9
2019-05-09T04:00:13.513Z,1002.9
2019-05-09T04:01:13.570Z,1002.9
2019-05-09T04:02:13.644Z,1002.9
2019-05-09T04:03:13.667Z,1002.9
2019-05-09T04:04:13.710Z,1003
2019-05-09T04:05:13.767Z,1003
2019-05-09T04:06:13.824Z,1002.9
2019-05-09T04:07:13.823Z,1003
2019-05-09T04:08:13.812Z,1003
2019-05-09T04:09:13.892Z,1003
2019-05-09T04:10:14.004Z,1002.9
2019-05-09T04:11:13.940Z,1003
2019-05-09T04:12:13.953Z,1002.9
2019-05-09T04:13:14.012Z,1003
2019-05-09T04:14:14.051Z,1003
2019-05-09T04:15:14.035Z,1003
2019-05-09T04:16:14.072Z,1002.9
2019-05-09T04:17:14.088Z,1002.9
2019-05-09T04:18:14.095Z,1002.9
2019-05-09T04:19:14.110Z,1002.9
2019-05-09T04:20:14.161Z,1002.9
2019-05-09T04:21:14.199Z,1002.9
2019-05-09T04:22:14.249Z,1002.8
2019-05-09T04:23:14.287Z,1002.9
2019-05-09T04:24:14.332Z,1002.9
2019-05-09T04:25:14.387Z,1002.8
2019-05-09T04:26:14.443Z,1002.8
2019-05-09T04:27:14.444Z,1002.9
2019-05-09T04:28:14.497Z,1002.8
2019-05-09T04:29:14.555Z,1002.8
2019-05-09T04:30:14.602Z,1002.8
2019-05-09T04:31:14.726Z,1002.9
2019-05-09T04:32:14.711Z,1002.8
2019-05-09T04:33:14.720Z,1002.8
2019-05-09T04:34:14.786Z,1002.8
2019-05-09T04:35:14.814Z,1002.9
2019-05-09T04:36:14.858Z,1002.8
2019-05-09T04:37:14.895Z,1002.9
2019-05-09T04:38:14.892Z,1002.9
2019-05-09T04:39:18.828Z,1002.9
2019-05-09T04:40:17.567Z,1002.9
2019-05-09T04:41:16.219Z,1003
2019-05-09T04:42:15.069Z,1002.9
2019-05-09T04:43:19.288Z,1003
2019-05-09T04:44:19.000Z,1002.9
2019-05-09T04:45:15.157Z,1003
2019-05-09T04:46:18.494Z,1003
2019-05-09T04:47:17.187Z,1003
2019-05-09T04:48:18.427Z,1003
2019-05-09T04:49:15.362Z,1003
2019-05-09T04:50:20.892Z,1003
2019-05-09T04:51:15.373Z,1003.1
2019-05-09T04:52:15.423Z,1003.1
2019-05-09T04:53:15.435Z,1003
2019-05-09T04:54:17.492Z,1003.1
2019-05-09T04:55:15.469Z,1003
2019-05-09T04:56:17.512Z,1003
2019-05-09T04:57:17.608Z,1003
2019-05-09T04:58:15.552Z,1003
2019-05-09T04:59:17.598Z,1003
2019-05-09T05:00:15.580Z,1003.1
2019-05-09T05:01:19.363Z,1003
2019-05-09T05:02:15.660Z,1003.1
2019-05-09T05:03:15.687Z,1003
2019-05-09T05:04:17.822Z,1003.1
2019-05-09T05:05:17.863Z,1003
2019-05-09T05:06:18.657Z,1003.1
2019-05-09T05:07:17.794Z,1003
2019-05-09T05:08:17.926Z,1003.1
2019-05-09T05:09:20.290Z,1003.1
2019-05-09T05:10:15.839Z,1003
2019-05-09T05:11:17.800Z,1003
2019-05-09T05:12:15.854Z,1003
2019-05-09T05:13:23.980Z,1003
2019-05-09T05:14:17.576Z,1003.1
2019-05-09T05:15:17.887Z,1003.1
2019-05-09T05:16:18.194Z,1003.1
2019-05-09T05:17:17.923Z,1003.1
2019-05-09T05:18:17.342Z,1003
2019-05-09T05:19:17.642Z,1003
2019-05-09T05:20:18.299Z,1003
2019-05-09T05:21:19.792Z,1003.2
2019-05-09T05:22:18.097Z,1003.1
2019-05-09T05:23:18.068Z,1003.1
2019-05-09T05:24:18.239Z,1003.1
2019-05-09T05:25:17.826Z,1003
2019-05-09T05:26:17.747Z,1003.1
2019-05-09T05:27:18.532Z,1003.2
2019-05-09T05:28:17.639Z,1003.1
2019-05-09T05:29:17.688Z,1003.1
2019-05-09T05:30:17.935Z,1003.2
2019-05-09T05:31:18.018Z,1003.2
2019-05-09T05:32:17.757Z,1003.3
2019-05-09T05:33:18.284Z,1003.2
2019-05-09T05:34:18.043Z,1003.2
2019-05-09T05:35:17.844Z,1003.2
2019-05-09T05:36:18.063Z,1003.3
2019-05-09T05:37:17.624Z,1003.3
2019-05-09T05:38:17.582Z,1003.2
2019-05-09T05:39:17.814Z,1003.3
2019-05-09T05:40:17.767Z,1003.2
2019-05-09T05:41:18.045Z,1003.2
2019-05-09T05:42:17.581Z,1003.3
2019-05-09T05:43:17.372Z,1003.3
2019-05-09T05:44:17.738Z,1003.3
2019-05-09T05:45:18.086Z,1003.3
2019-05-09T05:46:18.162Z,1003.2
2019-05-09T05:47:17.998Z,1003.3
2019-05-09T05:48:17.476Z,1003.2
2019-05-09T05:49:18.382Z,1003.2
2019-05-09T05:50:17.614Z,1003.3
2019-05-09T05:51:18.405Z,1003.3
2019-05-09T05:52:18.461Z,1003.3
2019-05-09T05:53:18.254Z,1003.3
2019-05-09T05:54:18.123Z,1003.4
2019-05-09T05:55:18.173Z,1003.3
2019-05-09T05:56:17.555Z,1003.3
2019-05-09T05:57:17.653Z,1003.3
2019-05-09T05:58:17.956Z,1003.3
2019-05-09T05:59:17.800Z,1003.2
2019-05-09T06:00:18.026Z,1003.2
2019-05-09T06:01:18.691Z,1003.3
2019-05-09T06:02:17.716Z,1003.2
2019-05-09T06:03:17.747Z,1003.2
2019-05-09T06:04:18.513Z,1003.3
2019-05-09T06:05:32.244Z,1003.2
2019-05-09T06:06:17.551Z,1003.3
2019-05-09T06:07:18.403Z,1003.4
2019-05-09T06:08:17.511Z,1003.3
2019-05-09T06:09:18.860Z,1003.2
2019-05-09T06:10:18.586Z,1003.2
2019-05-09T06:11:17.771Z,1003.2
2019-05-09T06:12:18.476Z,1003.3
2019-05-09T06:13:18.301Z,1003.3
2019-05-09T06:14:18.377Z,1003.3
2019-05-09T06:15:18.173Z,1003.3
2019-05-09T06:16:18.283Z,1003.2
2019-05-09T06:17:18.145Z,1003.2
2019-05-09T06:18:18.334Z,1003.2
2019-05-09T06:19:18.039Z,1003.3
2019-05-09T06:20:17.936Z,1003.3
2019-05-09T06:21:17.882Z,1003.3
2019-05-09T06:22:18.379Z,1003.3
2019-05-09T06:23:17.900Z,1003.3
2019-05-09T06:24:17.991Z,1003.3
2019-05-09T06:25:20.605Z,1003.2
2019-05-09T06:26:18.800Z,1003.3
2019-05-09T06:27:18.321Z,1003.2
2019-05-09T06:28:18.276Z,1003.2
2019-05-09T06:29:18.051Z,1003.3
2019-05-09T06:30:18.027Z,1003.3
2019-05-09T06:31:18.102Z,1003.3
2019-05-09T06:32:18.778Z,1003.3
2019-05-09T06:33:18.246Z,1003.3
2019-05-09T06:34:18.859Z,1003.3
2019-05-09T06:35:18.244Z,1003.2
2019-05-09T06:36:18.911Z,1003.2
2019-05-09T06:37:18.565Z,1003.2
2019-05-09T06:38:18.813Z,1003.2
2019-05-09T06:39:18.411Z,1003.3
2019-05-09T06:40:21.196Z,1003.3
2019-05-09T06:41:18.433Z,1003.2
2019-05-09T06:42:18.760Z,1003.2
2019-05-09T06:43:18.501Z,1003.2
2019-05-09T06:44:20.622Z,1003.2
2019-05-09T06:45:18.554Z,1003.1
2019-05-09T06:46:18.586Z,1003.1
2019-05-09T06:47:18.681Z,1003.1
2019-05-09T06:48:18.645Z,1003.1
2019-05-09T06:49:27.057Z,1003.1
2019-05-09T06:50:18.762Z,1003.1
2019-05-09T06:51:21.172Z,1003.1
2019-05-09T06:52:18.810Z,1003.1
2019-05-09T06:53:18.818Z,1003.1
2019-05-09T06:54:18.880Z,1003.1
2019-05-09T06:55:18.882Z,1003.1
2019-05-09T06:56:18.917Z,1003.1
2019-05-09T06:57:18.992Z,1003.2
2019-05-09T06:58:19.026Z,1003.1
2019-05-09T06:59:19.192Z,1003.2
2019-05-09T07:00:20.145Z,1003.1
2019-05-09T07:01:19.071Z,1003.1
2019-05-09T07:02:19.040Z,1003.2
2019-05-09T07:03:19.027Z,1003.2
2019-05-09T07:04:19.023Z,1003.2
2019-05-09T07:05:19.142Z,1003.2
2019-05-09T07:06:19.131Z,1003.1
2019-05-09T07:07:19.129Z,1003.1
2019-05-09T07:08:19.197Z,1003.2
2019-05-09T07:09:19.165Z,1003.1
2019-05-09T07:10:20.272Z,1003.2
2019-05-09T07:11:19.366Z,1003
2019-05-09T07:12:19.207Z,1003.1
2019-05-09T07:13:19.220Z,1003.1
2019-05-09T07:14:28.448Z,1003.1
2019-05-09T07:15:19.256Z,1003.1
2019-05-09T07:16:19.312Z,1003.1
2019-05-09T07:17:19.264Z,1003.2
2019-05-09T07:18:19.273Z,1003.1
2019-05-09T07:19:19.368Z,1003.2
2019-05-09T07:20:19.316Z,1003.2
2019-05-09T07:21:20.353Z,1003.2
2019-05-09T07:22:19.320Z,1003.2
2019-05-09T07:23:19.342Z,1003.2
2019-05-09T07:24:19.350Z,1003.2
2019-05-09T07:25:19.335Z,1003.1
2019-05-09T07:26:19.359Z,1003.2
2019-05-09T07:27:19.358Z,1003.2
2019-05-09T07:28:19.545Z,1003.2
2019-05-09T07:29:19.361Z,1003.2
2019-05-09T07:30:19.361Z,1003.2
2019-05-09T07:31:19.379Z,1003.2
2019-05-09T07:32:19.383Z,1003.2
2019-05-09T07:33:19.565Z,1003.2
2019-05-09T07:34:19.377Z,1003.1
2019-05-09T07:35:19.464Z,1003.1
2019-05-09T07:36:19.518Z,1003.1
2019-05-09T07:37:19.605Z,1003.2
2019-05-09T07:38:19.612Z,1003.2
2019-05-09T07:39:19.656Z,1003.2
2019-05-09T07:40:19.680Z,1003.2
2019-05-09T07:41:19.723Z,1003.2
2019-05-09T07:42:19.789Z,1003.1
2019-05-09T07:43:19.846Z,1003.1
2019-05-09T07:44:19.843Z,1003.1
2019-05-09T07:45:19.892Z,1003.1
2019-05-09T07:46:19.979Z,1003.1
2019-05-09T07:47:19.972Z,1003
2019-05-09T07:48:20.028Z,1003.1
2019-05-09T07:49:20.011Z,1003
2019-05-09T07:50:20.108Z,1003
2019-05-09T07:51:20.155Z,1003
2019-05-09T07:52:20.220Z,1003
2019-05-09T07:53:20.239Z,1003
2019-05-09T07:54:24.945Z,1003
2019-05-09T07:55:20.380Z,1003.1
2019-05-09T07:56:20.394Z,1003
2019-05-09T07:57:20.455Z,1003.1
2019-05-09T07:58:20.494Z,1003.1
2019-05-09T07:59:20.532Z,1003
2019-05-09T08:00:20.509Z,1003
2019-05-09T08:01:20.609Z,1003.1
2019-05-09T08:02:20.705Z,1003.1
2019-05-09T08:03:20.672Z,1003.1
2019-05-09T08:04:20.740Z,1003.1
2019-05-09T08:05:20.724Z,1003.1
2019-05-09T08:06:20.772Z,1003.2
2019-05-09T08:07:20.831Z,1003.1
2019-05-09T08:08:20.877Z,1003
2019-05-09T08:09:20.905Z,1003.1
2019-05-09T08:10:20.966Z,1003
2019-05-09T08:11:20.980Z,1003
2019-05-09T08:12:21.051Z,1003
2019-05-09T08:13:21.386Z,1003.1
2019-05-09T08:14:21.243Z,1003.2
2019-05-09T08:15:21.182Z,1003.1
2019-05-09T08:16:21.239Z,1003.1
2019-05-09T08:17:21.360Z,1003.1
2019-05-09T08:18:21.312Z,1003.1
2019-05-09T08:19:21.386Z,1003.1
2019-05-09T08:20:21.445Z,1003.2
2019-05-09T08:21:21.475Z,1003.1
2019-05-09T08:22:25.794Z,1003.1
2019-05-09T08:23:21.609Z,1003.2
2019-05-09T08:24:21.601Z,1003.1
2019-05-09T08:25:21.637Z,1003.1
2019-05-09T08:26:21.689Z,1003.2
2019-05-09T08:27:21.703Z,1003.1
2019-05-09T08:28:21.687Z,1003.1
2019-05-09T08:29:21.733Z,1003.1
2019-05-09T08:30:21.915Z,1003.2
2019-05-09T08:31:21.792Z,1003.2
2019-05-09T08:32:21.802Z,1003.2
2019-05-09T08:33:21.805Z,1003.3
2019-05-09T08:34:21.881Z,1003.3
2019-05-09T08:35:21.878Z,1003.2
2019-05-09T08:36:21.900Z,1003.3
2019-05-09T08:37:21.940Z,1003.3
2019-05-09T08:38:21.979Z,1003.1
2019-05-09T08:39:21.991Z,1003.2
2019-05-09T08:40:22.059Z,1003.2
2019-05-09T08:41:22.013Z,1003.2
2019-05-09T08:42:22.082Z,1003.2
2019-05-09T08:43:22.084Z,1003.2
2019-05-09T08:44:22.116Z,1003.3
2019-05-09T08:45:27.475Z,1003.2
2019-05-09T08:46:22.123Z,1003.2
2019-05-09T08:47:22.159Z,1003.2
2019-05-09T08:48:22.175Z,1003.3
2019-05-09T08:49:22.220Z,1003.3
2019-05-09T08:50:22.310Z,1003.3
2019-05-09T08:51:24.717Z,1003.3
2019-05-09T08:52:22.277Z,1003.2
2019-05-09T08:53:22.392Z,1003.2
2019-05-09T08:54:22.342Z,1003.2
2019-05-09T08:55:22.403Z,1003.2
2019-05-09T08:56:22.410Z,1003.2
2019-05-09T08:57:22.403Z,1003.3
2019-05-09T08:58:22.459Z,1003.2
2019-05-09T08:59:22.423Z,1003.2
2019-05-09T09:00:22.418Z,1003.3
2019-05-09T09:01:29.432Z,1003.1
2019-05-09T09:02:22.728Z,1003.1
2019-05-09T09:03:22.506Z,1003.3
2019-05-09T09:04:22.490Z,1003.2
2019-05-09T09:05:22.482Z,1003.2
2019-05-09T09:06:22.510Z,1003.2
2019-05-09T09:07:22.512Z,1003.1
2019-05-09T09:08:22.508Z,1003.2
2019-05-09T09:09:22.527Z,1003.2
2019-05-09T09:10:22.551Z,1003.2
2019-05-09T09:11:22.544Z,1003.2
2019-05-09T09:12:30.105Z,1003.2
2019-05-09T09:13:22.553Z,1003.1
2019-05-09T09:14:22.548Z,1003.1
2019-05-09T09:15:22.545Z,1003.1
2019-05-09T09:16:22.766Z,1003.2
2019-05-09T09:17:22.584Z,1003.1
2019-05-09T09:18:22.577Z,1003.1
2019-05-09T09:19:22.648Z,1003.1
2019-05-09T09:20:22.581Z,1003
2019-05-09T09:21:22.632Z,1003
2019-05-09T09:22:22.630Z,1003.1
2019-05-09T09:23:22.680Z,1003
2019-05-09T09:24:22.732Z,1003
2019-05-09T09:25:22.802Z,1003
2019-05-09T09:26:22.844Z,1002.9
2019-05-09T09:27:22.841Z,1002.8
2019-05-09T09:28:22.909Z,1002.8
2019-05-09T09:29:22.961Z,1002.8
2019-05-09T09:30:25.439Z,1002.8
2019-05-09T09:31:23.099Z,1003
2019-05-09T09:32:23.226Z,1002.8
2019-05-09T09:33:23.149Z,1002.8
2019-05-09T09:34:23.157Z,1002.7
2019-05-09T09:35:23.199Z,1002.8
2019-05-09T09:36:23.285Z,1002.9
2019-05-09T09:37:23.316Z,1002.8
2019-05-09T09:38:23.402Z,1002.8
2019-05-09T09:39:23.381Z,1002.7
2019-05-09T09:40:23.411Z,1002.8
2019-05-09T09:41:23.481Z,1002.8
2019-05-09T09:42:23.525Z,1002.7
2019-05-09T09:43:23.604Z,1002.7
2019-05-09T09:44:23.639Z,1002.7
2019-05-09T09:45:23.701Z,1002.8
2019-05-09T09:46:23.737Z,1002.8
2019-05-09T09:47:23.815Z,1002.8
2019-05-09T09:48:23.844Z,1002.8
2019-05-09T09:49:24.009Z,1002.7
2019-05-09T09:50:23.945Z,1002.7
2019-05-09T09:51:24.042Z,1002.7
2019-05-09T09:52:24.037Z,1002.7
2019-05-09T09:53:24.172Z,1002.7
2019-05-09T09:54:24.106Z,1002.8
2019-05-09T09:55:24.167Z,1002.7
2019-05-09T09:56:24.206Z,1002.8
2019-05-09T09:57:24.302Z,1002.7
2019-05-09T09:58:24.317Z,1002.8
2019-05-09T09:59:24.329Z,1002.8
2019-05-09T10:00:24.351Z,1002.7
2019-05-09T10:01:24.361Z,1002.8
2019-05-09T10:02:27.583Z,1002.8
2019-05-09T10:03:24.393Z,1002.7
2019-05-09T10:04:28.342Z,1002.8
2019-05-09T10:05:24.463Z,1002.7
2019-05-09T10:06:24.522Z,1002.9
2019-05-09T10:07:24.594Z,1002.7
2019-05-09T10:08:24.624Z,1002.8
2019-05-09T10:09:24.675Z,1002.7
2019-05-09T10:10:24.701Z,1002.7
2019-05-09T10:11:24.731Z,1002.7
2019-05-09T10:12:24.793Z,1002.7
2019-05-09T10:13:24.839Z,1002.6
2019-05-09T10:14:24.928Z,1002.7
2019-05-09T10:15:24.902Z,1002.7
2019-05-09T10:16:29.281Z,1002.6
2019-05-09T10:17:24.979Z,1002.5
2019-05-09T10:18:27.458Z,1002.6
2019-05-09T10:19:25.048Z,1002.6
2019-05-09T10:20:25.079Z,1002.6
2019-05-09T10:21:27.486Z,1002.6
2019-05-09T10:22:26.273Z,1002.5
2019-05-09T10:23:25.200Z,1002.6
2019-05-09T10:24:25.225Z,1002.5
2019-05-09T10:25:27.454Z,1002.6
2019-05-09T10:26:25.282Z,1002.6
2019-05-09T10:27:25.306Z,1002.5
2019-05-09T10:28:25.314Z,1002.5
2019-05-09T10:29:25.351Z,1002.6
2019-05-09T10:30:25.396Z,1002.5
2019-05-09T10:31:28.042Z,1002.6
2019-05-09T10:32:25.418Z,1002.5
2019-05-09T10:33:25.405Z,1002.5
2019-05-09T10:34:25.503Z,1002.6
2019-05-09T10:35:27.724Z,1002.5
2019-05-09T10:36:27.635Z,1002.5
2019-05-09T10:37:25.514Z,1002.4
2019-05-09T10:38:27.721Z,1002.5
2019-05-09T10:39:27.635Z,1002.5
2019-05-09T10:40:27.924Z,1002.5
2019-05-09T10:41:25.611Z,1002.5
2019-05-09T10:42:25.622Z,1002.4
2019-05-09T10:43:35.334Z,1002.4
2019-05-09T10:44:25.674Z,1002.5
2019-05-09T10:45:25.701Z,1002.4
2019-05-09T10:46:28.295Z,1002.3
2019-05-09T10:47:27.276Z,1002.4
2019-05-09T10:48:28.056Z,1002.4
2019-05-09T10:49:25.815Z,1002.3
2019-05-09T10:50:32.576Z,1002.3
2019-05-09T10:51:25.800Z,1002.4
2019-05-09T10:52:27.744Z,1002.3
2019-05-09T10:53:27.856Z,1002.3
2019-05-09T10:54:27.820Z,1002.3
2019-05-09T10:55:28.189Z,1002.3
2019-05-09T10:56:27.989Z,1002.2
2019-05-09T10:57:30.152Z,1002.3
2019-05-09T10:58:28.194Z,1002.3
2019-05-09T10:59:25.953Z,1002.2
2019-05-09T11:00:25.965Z,1002.2
2019-05-09T11:01:26.072Z,1002.2
2019-05-09T11:02:27.893Z,1002.1
2019-05-09T11:03:25.988Z,1002.2
2019-05-09T11:04:28.522Z,1002.1
2019-05-09T11:05:27.711Z,1002.1
2019-05-09T11:06:28.348Z,1002
2019-05-09T11:07:28.615Z,1002
2019-05-09T11:08:28.369Z,1002.1
2019-05-09T11:09:28.981Z,1002
2019-05-09T11:10:29.924Z,1001.9
2019-05-09T11:11:28.123Z,1002
2019-05-09T11:12:27.551Z,1002
2019-05-09T11:13:28.406Z,1001.9
2019-05-09T11:14:33.382Z,1001.9
2019-05-09T11:15:26.111Z,1001.9
2019-05-09T11:16:39.358Z,1001.9
2019-05-09T11:17:28.295Z,1001.9
2019-05-09T11:18:28.397Z,1001.9
2019-05-09T11:19:28.535Z,1001.9
2019-05-09T11:20:28.356Z,1001.8
2019-05-09T11:21:28.477Z,1001.8
2019-05-09T11:22:28.871Z,1001.8
2019-05-09T11:23:28.992Z,1001.8
2019-05-09T11:24:40.908Z,1001.8
2019-05-09T11:25:27.734Z,1001.8
2019-05-09T11:26:28.403Z,1001.8
2019-05-09T11:27:28.792Z,1001.7
2019-05-09T11:28:28.520Z,1001.7
2019-05-09T11:29:28.086Z,1001.7
2019-05-09T11:30:28.096Z,1001.7
2019-05-09T11:31:29.084Z,1001.7
2019-05-09T11:32:27.649Z,1001.6
2019-05-09T11:33:27.771Z,1001.7
2019-05-09T11:34:27.004Z,1001.8
2019-05-09T11:35:27.053Z,1001.8
2019-05-09T11:36:27.111Z,1001.8
2019-05-09T11:37:27.131Z,1001.9
2019-05-09T11:38:34.054Z,1001.8
2019-05-09T11:39:36.286Z,1001.9
2019-05-09T11:40:28.120Z,1001.9
2019-05-09T11:41:29.354Z,1001.8
2019-05-09T11:42:28.478Z,1001.9
2019-05-09T11:43:29.656Z,1001.8
2019-05-09T11:44:27.392Z,1001.9
2019-05-09T11:45:28.051Z,1001.9
2019-05-09T11:46:28.734Z,1002
2019-05-09T11:47:36.379Z,1002
2019-05-09T11:48:28.349Z,1001.9
2019-05-09T11:49:29.489Z,1002
2019-05-09T11:50:30.126Z,1002.1
2019-05-09T11:51:28.948Z,1002.1
2019-05-09T11:52:28.778Z,1002.1
2019-05-09T11:53:28.745Z,1002.1
2019-05-09T11:54:28.032Z,1002.1
2019-05-09T11:55:35.119Z,1002.1
2019-05-09T11:56:27.890Z,1002.1
2019-05-09T11:57:31.203Z,1002.2
2019-05-09T11:58:28.114Z,1002.1
2019-05-09T11:59:28.223Z,1002.2
2019-05-09T12:00:29.368Z,1002.2
2019-05-09T12:01:29.171Z,1002.2
2019-05-09T12:02:28.141Z,1002.3
2019-05-09T12:03:28.157Z,1002.2
2019-05-09T12:04:28.335Z,1002.3
2019-05-09T12:05:28.850Z,1002.3
2019-05-09T12:06:29.090Z,1002.4
2019-05-09T12:07:28.862Z,1002.3
2019-05-09T12:08:28.287Z,1002.3
2019-05-09T12:09:28.927Z,1002.3
2019-05-09T12:10:28.833Z,1002.3
2019-05-09T12:11:28.396Z,1002.3
2019-05-09T12:12:28.485Z,1002.4
2019-05-09T12:13:28.479Z,1002.3
2019-05-09T12:14:28.500Z,1002.3
2019-05-09T12:15:29.142Z,1002.4
2019-05-09T12:16:28.556Z,1002.3
2019-05-09T12:17:35.095Z,1002.3
2019-05-09T12:18:28.725Z,1002.3
2019-05-09T12:19:29.574Z,1002.3
2019-05-09T12:20:28.702Z,1002.3
2019-05-09T12:21:29.213Z,1002.3
2019-05-09T12:22:28.736Z,1002.3
2019-05-09T12:23:29.197Z,1002.3
2019-05-09T12:24:29.554Z,1002.3
2019-05-09T12:25:28.802Z,1002.3
2019-05-09T12:26:29.342Z,1002.3
2019-05-09T12:27:28.814Z,1002.4
2019-05-09T12:28:28.842Z,1002.3
2019-05-09T12:29:28.911Z,1002.2
2019-05-09T12:30:28.882Z,1002.2
2019-05-09T12:31:31.342Z,1002.3
2019-05-09T12:32:28.980Z,1002.2